Time;durP1;ratioP1;P1;durP2;ratioP2;P2;SDS_P1;SDS_P2;PMS_P1;PMS_P2;Temp;Humidity;BMP_temperature;BMP_pressure;BME280_temperature;BME280_humidity;BME280_pressure;Samples;Min_cycle;Max_cycle;Signal;HPM_P1;HPM_P2
2023/05/20 00:00:11;;;;;;;10.35;3.97;;;;;;;11.84;64.48;102320.34;6108771;23;20020;-78
2023/05/20 00:02:36;;;;;;;8.88;3.30;;;;;;;11.82;64.55;102321.19;6132897;23;20036;-77
2023/05/20 00:05:02;;;;;;;10.40;3.55;;;;;;;11.81;64.86;102320.31;6132285;23;20066;-78
2023/05/20 00:07:28;;;;;;;7.60;3.67;;;;;;;11.74;65.50;102316.75;6132864;23;20060;-78
2023/05/20 00:09:53;;;;;;;8.88;4.25;;;;;;;11.75;64.94;102310.66;6132416;23;20084;-78
2023/05/20 00:12:19;;;;;;;10.82;4.30;;;;;;;11.71;65.45;102314.13;6183684;23;20063;-76
2023/05/20 00:14:44;;;;;;;10.10;3.72;;;;;;;11.68;65.84;102307.94;6132806;23;20013;-79
2023/05/20 00:17:10;;;;;;;8.15;3.67;;;;;;;11.66;66.04;102309.69;6133640;23;20348;-78
2023/05/20 00:19:35;;;;;;;10.07;4.03;;;;;;;11.61;66.30;102307.03;6108720;23;20009;-79
2023/05/20 00:22:01;;;;;;;9.80;4.28;;;;;;;11.58;66.20;102309.66;6132641;23;20428;-77
2023/05/20 00:24:27;;;;;;;9.65;3.70;;;;;;;11.54;66.08;102313.13;6131904;23;20428;-78
2023/05/20 00:26:52;;;;;;;10.55;3.92;;;;;;;11.48;66.43;102307.78;6133338;23;20012;-78
2023/05/20 00:29:20;;;;;;;8.80;3.70;;;;;;;11.42;67.05;102308.63;6108961;23;20009;-78
2023/05/20 00:31:45;;;;;;;11.10;4.50;;;;;;;11.42;66.82;102303.38;6185359;23;20015;-80
2023/05/20 00:34:10;;;;;;;12.27;4.25;;;;;;;11.39;66.73;102304.25;6110076;23;20033;-79
2023/05/20 00:36:36;;;;;;;11.95;4.28;;;;;;;11.38;67.49;102299.84;6159073;23;20020;-76
2023/05/20 00:39:01;;;;;;;9.20;3.67;;;;;;;11.35;67.27;102305.09;6110964;23;20009;-78
2023/05/20 00:41:27;;;;;;;8.18;4.28;;;;;;;11.27;67.54;102304.13;6109468;23;20013;-80
2023/05/20 00:43:55;;;;;;;9.02;4.38;;;;;;;11.27;67.79;102305.00;6109776;23;20080;-78
2023/05/20 00:46:23;;;;;;;13.25;4.30;;;;;;;11.24;68.18;102304.13;6134050;23;20009;-78
2023/05/20 00:48:49;;;;;;;8.07;4.10;;;;;;;11.21;68.14;102301.47;6158950;23;20009;-79
2023/05/20 00:51:14;;;;;;;8.55;3.85;;;;;;;11.17;68.21;102297.06;6134178;23;20040;-79
2023/05/20 00:53:41;;;;;;;8.52;4.22;;;;;;;11.14;68.39;102294.41;6134522;23;20005;-78
2023/05/20 00:56:07;;;;;;;9.88;4.35;;;;;;;11.15;68.24;102297.03;6109160;23;20336;-79
2023/05/20 00:58:35;;;;;;;10.52;4.22;;;;;;;11.12;68.36;102301.38;6159499;23;20088;-78
2023/05/20 01:01:01;;;;;;;11.60;4.10;;;;;;;11.11;68.73;102297.88;6159043;23;20443;-78
2023/05/20 01:03:28;;;;;;;7.78;3.90;;;;;;;11.07;68.71;102299.56;6158865;23;20009;-78
2023/05/20 01:05:53;;;;;;;10.25;4.40;;;;;;;11.05;69.07;102295.19;6109660;23;20032;-78
2023/05/20 01:08:23;;;;;;;9.95;4.30;;;;;;;11.02;69.10;102296.03;6159418;23;20483;-77
2023/05/20 01:10:58;;;;;;;11.05;4.40;;;;;;;10.98;68.98;102296.88;6109597;23;20004;-78
2023/05/20 01:13:32;;;;;;;8.50;4.22;;;;;;;10.91;69.33;102295.06;6158318;23;20536;-78
2023/05/20 01:16:00;;;;;;;9.82;4.43;;;;;;;10.87;69.53;102295.88;6158964;23;20087;-78
2023/05/20 01:18:28;;;;;;;12.30;4.25;;;;;;;10.81;69.97;102286.22;6134883;23;20071;-78
2023/05/20 01:21:00;;;;;;;10.60;4.60;;;;;;;10.79;69.69;102292.28;6134064;23;20009;-78
2023/05/20 01:23:36;;;;;;;11.20;4.97;;;;;;;10.70;70.57;102286.09;6158795;23;20013;-77
2023/05/20 01:26:02;;;;;;;8.82;4.63;;;;;;;10.73;70.22;102294.00;6157783;23;20045;-78
2023/05/20 01:28:29;;;;;;;9.77;4.05;;;;;;;10.71;70.27;102292.22;6110282;23;20024;-76
2023/05/20 01:30:55;;;;;;;9.30;5.03;;;;;;;10.68;70.70;102289.56;6110852;23;20009;-78
2023/05/20 01:33:24;;;;;;;9.68;4.75;;;;;;;10.64;70.88;102283.41;6158140;23;20063;-77
2023/05/20 01:35:50;;;;;;;12.63;4.78;;;;;;;10.62;71.12;102279.03;6158333;23;20001;-78
2023/05/20 01:38:18;;;;;;;11.98;4.75;;;;;;;10.63;70.93;102279.03;6110156;23;20371;-77
2023/05/20 01:40:44;;;;;;;11.52;5.18;;;;;;;10.57;71.04;102281.56;6157902;23;20336;-77
2023/05/20 01:43:11;;;;;;;9.13;4.28;;;;;;;10.51;71.55;102268.41;6134269;23;20348;-77
2023/05/20 01:45:38;;;;;;;10.45;4.93;;;;;;;10.52;72.12;102267.56;6110455;23;20343;-77
2023/05/20 01:48:04;;;;;;;13.05;5.10;;;;;;;10.52;72.11;102271.03;6135067;23;20089;-77
2023/05/20 01:50:29;;;;;;;9.95;5.05;;;;;;;10.50;72.06;102264.00;6158586;23;20032;-77
2023/05/20 01:52:55;;;;;;;8.57;4.72;;;;;;;10.50;71.78;102283.25;6109072;23;20480;-77
2023/05/20 01:55:20;;;;;;;11.73;4.82;;;;;;;10.47;72.35;102279.72;6108608;23;20005;-77
2023/05/20 01:57:46;;;;;;;9.50;5.10;;;;;;;10.41;72.30;102277.91;6134507;23;20029;-77
2023/05/20 02:00:12;;;;;;;12.35;5.35;;;;;;;10.39;72.28;102275.25;6133871;23;20332;-77
2023/05/20 02:02:37;;;;;;;9.63;4.55;;;;;;;10.39;72.74;102267.41;6108650;23;20020;-78
2023/05/20 02:05:03;;;;;;;11.68;5.32;;;;;;;10.35;72.69;102265.59;6158905;23;20023;-79
2023/05/20 02:07:28;;;;;;;8.13;4.65;;;;;;;10.39;73.01;102267.41;6158383;23;20447;-78
2023/05/20 02:09:53;;;;;;;8.68;4.93;;;;;;;10.38;72.96;102270.88;6108240;23;20016;-78
2023/05/20 02:12:21;;;;;;;10.30;5.35;;;;;;;10.37;73.04;102263.91;6108881;23;20009;-78
2023/05/20 02:14:48;;;;;;;9.25;5.22;;;;;;;10.34;73.27;102255.09;6133825;23;20005;-78
2023/05/20 02:17:15;;;;;;;11.13;4.93;;;;;;;10.37;72.95;102263.00;6110091;23;20087;-78
2023/05/20 02:19:41;;;;;;;10.05;5.05;;;;;;;10.30;73.40;102267.28;6134248;23;20021;-78
2023/05/20 02:22:07;;;;;;;12.57;5.97;;;;;;;10.32;73.33;102264.66;6133141;23;20405;-78
2023/05/20 02:24:32;;;;;;;8.68;5.20;;;;;;;10.26;73.22;102254.09;6132946;23;20059;-77
2023/05/20 02:26:57;;;;;;;13.98;5.50;;;;;;;10.27;73.60;102256.75;6134170;23;20152;-78
2023/05/20 02:29:24;;;;;;;9.43;5.25;;;;;;;10.21;73.82;102265.41;6133812;23;20099;-77
2023/05/20 02:31:49;;;;;;;13.45;5.80;;;;;;;10.19;73.95;102253.16;6133624;23;20013;-79
2023/05/20 02:34:16;;;;;;;11.77;5.53;;;;;;;10.21;74.10;102261.91;6133878;23;20036;-79
2023/05/20 02:36:42;;;;;;;9.13;5.28;;;;;;;10.16;74.84;102260.97;6133481;23;20009;-79
2023/05/20 02:39:07;;;;;;;11.95;5.18;;;;;;;10.16;74.41;102253.13;6109834;23;20075;-78
2023/05/20 02:41:33;;;;;;;16.67;5.78;;;;;;;10.15;74.77;102261.81;6157152;23;20408;-77
2023/05/20 02:43:58;;;;;;;10.68;5.40;;;;;;;10.10;74.70;102248.69;6108753;23;20005;-77
2023/05/20 02:46:24;;;;;;;9.20;5.07;;;;;;;10.13;74.39;102263.53;6133229;23;20016;-78
2023/05/20 02:48:49;;;;;;;9.60;5.50;;;;;;;10.12;75.28;102264.41;6133842;23;20394;-78
2023/05/20 02:51:15;;;;;;;12.52;5.30;;;;;;;10.12;75.33;102267.03;6157660;23;20036;-77
2023/05/20 02:53:40;;;;;;;10.77;5.35;;;;;;;10.08;74.88;102257.38;6132773;23;20013;-78
2023/05/20 02:56:07;;;;;;;11.00;5.60;;;;;;;10.04;75.32;102252.09;6131881;23;20021;-78
2023/05/20 02:58:34;;;;;;;10.57;5.43;;;;;;;10.06;75.32;102255.59;6110173;23;20387;-78
2023/05/20 03:01:00;;;;;;;9.20;5.10;;;;;;;10.06;75.54;102252.13;6109604;23;20013;-79
2023/05/20 03:03:26;;;;;;;12.88;5.75;;;;;;;10.02;75.57;102253.81;6108927;23;20013;-78
2023/05/20 03:05:52;;;;;;;10.40;5.45;;;;;;;9.99;75.69;102250.28;6157107;23;20419;-77
2023/05/20 03:08:20;;;;;;;9.02;5.15;;;;;;;9.97;76.12;102250.25;6158690;23;20055;-79
2023/05/20 03:10:46;;;;;;;9.48;5.20;;;;;;;9.91;75.74;102250.16;6157068;23;20533;-77
2023/05/20 03:13:11;;;;;;;10.27;5.90;;;;;;;9.88;75.84;102248.41;6108916;23;20013;-77
2023/05/20 03:15:41;;;;;;;11.95;5.43;;;;;;;9.87;76.06;102248.38;6133024;23;20063;-78
2023/05/20 03:18:09;;;;;;;10.40;5.20;;;;;;;9.80;76.40;102250.03;6109408;23;20075;-77
2023/05/20 03:20:35;;;;;;;7.97;5.35;;;;;;;9.79;76.48;102250.88;6133782;23;20013;-78
2023/05/20 03:23:03;;;;;;;11.25;5.93;;;;;;;9.80;76.84;102249.16;6132463;23;20023;-77
2023/05/20 03:25:29;;;;;;;11.63;5.80;;;;;;;9.80;76.64;102249.16;6156799;23;20000;-77
2023/05/20 03:27:57;;;;;;;12.90;5.65;;;;;;;9.77;76.97;102249.09;6109166;23;20009;-79
2023/05/20 03:30:23;;;;;;;7.82;5.65;;;;;;;9.72;77.11;102251.63;6132765;23;20005;-77
2023/05/20 03:32:48;;;;;;;11.98;6.00;;;;;;;9.73;77.39;102247.31;6133486;23;20032;-77
2023/05/20 03:35:13;;;;;;;10.43;5.63;;;;;;;9.75;77.33;102256.91;6157944;23;20099;-79
2023/05/20 03:37:39;;;;;;;9.25;5.38;;;;;;;9.71;77.21;102247.25;6108630;23;20079;-77
2023/05/20 03:40:06;;;;;;;8.82;5.18;;;;;;;9.75;77.22;102256.03;6107899;23;20009;-77
2023/05/20 03:42:33;;;;;;;10.88;5.35;;;;;;;9.75;77.56;102259.53;6133823;23;20028;-78
2023/05/20 03:44:59;;;;;;;11.38;5.65;;;;;;;9.69;77.74;102252.47;6157894;23;20001;-78
2023/05/20 03:47:27;;;;;;;11.73;6.25;;;;;;;9.67;78.41;102248.97;6133674;23;20100;-79
2023/05/20 03:49:54;;;;;;;9.27;5.68;;;;;;;9.69;77.74;102251.59;6133407;23;20088;-78
2023/05/20 03:52:19;;;;;;;10.75;6.15;;;;;;;9.68;78.01;102249.84;6133175;23;20490;-78
2023/05/20 03:54:45;;;;;;;10.82;5.40;;;;;;;9.67;77.87;102254.19;6132695;23;20016;-78
2023/05/20 03:57:10;;;;;;;11.70;5.88;;;;;;;9.62;78.42;102262.84;6133293;23;20027;-78
2023/05/20 03:59:36;;;;;;;12.38;6.10;;;;;;;9.62;78.20;102253.25;6108684;23;20332;-78
2023/05/20 04:02:02;;;;;;;11.30;5.93;;;;;;;9.62;77.86;102242.78;6157239;23;20009;-77
2023/05/20 04:04:28;;;;;;;10.85;5.88;;;;;;;9.64;78.42;102255.88;6157859;23;20005;-77
2023/05/20 04:06:55;;;;;;;11.65;6.03;;;;;;;9.65;78.59;102245.44;6134405;23;20041;-79
2023/05/20 04:09:21;;;;;;;11.68;6.43;;;;;;;9.63;78.36;102246.28;6135106;23;20009;-78
2023/05/20 04:11:47;;;;;;;11.00;5.97;;;;;;;9.67;78.86;102242.88;6109553;23;20017;-77
2023/05/20 04:14:12;;;;;;;13.02;6.18;;;;;;;9.66;79.23;102246.31;6134828;23;20493;-78
2023/05/20 04:16:38;;;;;;;12.77;5.93;;;;;;;9.71;78.67;102248.16;6110618;23;20016;-78
2023/05/20 04:19:04;;;;;;;11.10;5.90;;;;;;;9.80;78.60;102251.78;6110570;23;20013;-79
2023/05/20 04:21:30;;;;;;;9.82;5.68;;;;;;;9.84;79.05;102250.94;6133978;23;20071;-78
2023/05/20 04:23:56;;;;;;;10.13;5.93;;;;;;;9.94;79.04;102252.84;6159605;23;20013;-78
2023/05/20 04:26:21;;;;;;;10.07;6.00;;;;;;;10.02;78.33;102251.19;6133875;23;20431;-78
2023/05/20 04:28:50;;;;;;;11.60;6.40;;;;;;;10.09;79.45;102259.13;6135143;23;20009;-78
2023/05/20 04:31:15;;;;;;;11.95;5.97;;;;;;;10.28;78.69;102261.13;6158560;23;20378;-77
2023/05/20 04:33:41;;;;;;;10.95;5.68;;;;;;;10.35;79.40;102255.13;6159569;23;20076;-78
2023/05/20 04:36:10;;;;;;;11.18;6.07;;;;;;;10.51;78.56;102261.41;6133667;23;20020;-77
2023/05/20 04:38:36;;;;;;;10.23;5.68;;;;;;;10.62;78.20;102250.19;6159637;23;20009;-78
2023/05/20 04:41:02;;;;;;;9.75;6.05;;;;;;;10.77;77.68;102257.31;6107961;23;20384;-79
2023/05/20 04:43:29;;;;;;;10.90;5.95;;;;;;;10.86;77.10;102257.41;6134571;23;20028;-77
2023/05/20 04:45:58;;;;;;;11.15;6.25;;;;;;;10.93;78.14;102264.47;6134394;23;20008;-77
2023/05/20 04:48:24;;;;;;;10.95;5.55;;;;;;;11.07;76.46;102262.84;6134826;23;20013;-78
2023/05/20 04:50:50;;;;;;;10.60;5.78;;;;;;;11.21;76.46;102254.22;6108591;23;20317;-78
2023/05/20 04:53:20;;;;;;;10.77;6.00;;;;;;;11.26;75.61;102248.16;6133232;23;20911;-79
2023/05/20 04:55:47;;;;;;;13.90;5.95;;;;;;;11.44;75.52;102252.66;6132926;23;20048;-80
2023/05/20 04:58:16;;;;;;;10.98;5.72;;;;;;;11.62;75.20;102256.25;6158732;23;20009;-78
2023/05/20 05:00:42;;;;;;;11.30;6.00;;;;;;;11.72;75.05;102258.09;6134617;23;20016;-78
2023/05/20 05:03:07;;;;;;;13.65;6.28;;;;;;;11.92;75.15;102258.22;6159242;23;20305;-79
2023/05/20 05:05:37;;;;;;;9.13;5.88;;;;;;;12.07;73.66;102260.06;6110337;23;20005;-78
2023/05/20 05:08:03;;;;;;;11.15;5.78;;;;;;;12.22;73.14;102259.25;6158786;23;20012;-79
2023/05/20 05:10:29;;;;;;;9.43;6.07;;;;;;;12.37;74.17;102247.94;6133568;23;20025;-79
2023/05/20 05:12:54;;;;;;;11.57;5.85;;;;;;;12.51;73.10;102247.09;6109374;23;20032;-78
2023/05/20 05:15:20;;;;;;;8.75;5.85;;;;;;;12.68;72.50;102242.75;6109646;23;20099;-79
2023/05/20 05:17:47;;;;;;;10.70;5.18;;;;;;;12.89;71.85;102235.78;6109169;23;20051;-77
2023/05/20 05:20:12;;;;;;;9.23;5.47;;;;;;;12.93;70.23;102245.41;6134133;23;20005;-77
2023/05/20 05:22:40;;;;;;;8.55;4.90;;;;;;;13.22;70.93;102240.16;6109294;23;20004;-80
2023/05/20 05:25:06;;;;;;;9.02;5.13;;;;;;;13.30;69.74;102233.13;6133129;23;20011;-78
2023/05/20 05:27:32;;;;;;;10.45;5.43;;;;;;;13.44;68.98;102229.63;6157107;23;20346;-80
2023/05/20 05:29:57;;;;;;;8.88;5.18;;;;;;;13.70;69.32;102234.84;6133435;23;20012;-81
2023/05/20 05:32:22;;;;;;;10.68;5.55;;;;;;;13.78;68.06;102232.22;6133425;23;20012;-79
2023/05/20 05:34:48;;;;;;;8.88;4.97;;;;;;;13.91;68.31;102243.59;6109540;23;20009;-80
2023/05/20 05:37:13;;;;;;;10.98;5.82;;;;;;;14.08;67.96;102236.50;6158020;23;20012;-79
2023/05/20 05:39:39;;;;;;;10.23;4.75;;;;;;;14.19;67.31;102241.69;6108938;23;20009;-81
2023/05/20 05:42:04;;;;;;;9.48;4.55;;;;;;;14.41;65.29;102236.31;6109822;23;20383;-77
2023/05/20 05:44:30;;;;;;;11.23;4.75;;;;;;;14.63;67.07;102243.25;6109151;23;20013;-78
2023/05/20 05:46:55;;;;;;;9.48;4.93;;;;;;;14.72;64.77;102243.22;6158215;23;20052;-78
2023/05/20 05:49:21;;;;;;;6.05;4.32;;;;;;;14.83;64.36;102239.63;6109720;23;20025;-78
2023/05/20 05:51:46;;;;;;;6.53;4.30;;;;;;;15.04;62.98;102233.28;6157701;23;20334;-78
2023/05/20 05:54:12;;;;;;;10.82;4.75;;;;;;;15.29;62.50;102236.59;6109172;23;20488;-79
2023/05/20 05:56:37;;;;;;;6.63;4.28;;;;;;;15.34;61.32;102231.28;6132329;23;20348;-75
2023/05/20 05:59:03;;;;;;;9.35;4.30;;;;;;;15.50;61.37;102232.88;6133662;23;20033;-78
2023/05/20 06:01:29;;;;;;;8.77;4.60;;;;;;;15.66;62.46;102238.00;6158088;23;20482;-77
2023/05/20 06:03:55;;;;;;;8.45;4.35;;;;;;;15.80;59.96;102233.47;6109682;23;20008;-77
2023/05/20 06:06:20;;;;;;;7.85;4.47;;;;;;;15.92;60.35;102235.09;6157847;23;20008;-76
2023/05/20 06:08:45;;;;;;;8.23;3.85;;;;;;;16.13;59.93;102238.38;6109562;23;20107;-78
2023/05/20 06:11:11;;;;;;;7.25;4.00;;;;;;;16.40;59.52;102237.13;6107947;23;20013;-80
2023/05/20 06:13:36;;;;;;;10.60;4.28;;;;;;;16.46;58.04;102231.75;6133818;23;20009;-80
2023/05/20 06:16:02;;;;;;;14.73;5.45;;;;;;;16.66;57.46;102239.38;6133523;23;20009;-80
2023/05/20 06:18:28;;;;;;;10.00;4.13;;;;;;;16.76;56.79;102230.41;6133735;23;20037;-78
2023/05/20 06:20:57;;;;;;;5.75;3.88;;;;;;;17.07;58.63;102229.09;6132887;23;20019;-80
2023/05/20 06:23:23;;;;;;;9.27;4.07;;;;;;;17.04;55.43;102222.06;6158387;23;20004;-76
2023/05/20 06:25:49;;;;;;;8.18;4.15;;;;;;;17.31;57.29;102214.53;6108552;23;20009;-78
2023/05/20 06:28:15;;;;;;;8.40;4.28;;;;;;;17.26;55.16;102219.91;6133426;23;20013;-76
2023/05/20 06:30:43;;;;;;;11.32;4.25;;;;;;;17.39;56.47;102211.75;6133167;23;20020;-78
2023/05/20 06:33:10;;;;;;;9.80;4.25;;;;;;;17.46;53.84;102213.38;6134119;23;20032;-80
2023/05/20 06:35:35;;;;;;;9.30;4.20;;;;;;;17.54;52.77;102208.81;6132883;23;20020;-77
2023/05/20 06:38:01;;;;;;;7.22;4.10;;;;;;;17.81;55.05;102201.22;6108554;23;20439;-76
2023/05/20 06:40:27;;;;;;;9.57;4.43;;;;;;;17.75;53.53;102211.94;6132426;23;20013;-76
2023/05/20 06:42:53;;;;;;;11.52;4.40;;;;;;;17.58;53.59;102202.53;6157797;23;20379;-79
2023/05/20 06:45:19;;;;;;;8.63;4.13;;;;;;;17.89;53.48;102204.59;6132630;23;20009;-81
2023/05/20 06:47:46;;;;;;;7.82;4.18;;;;;;;18.07;55.22;102207.78;6133995;23;20009;-80
2023/05/20 06:50:12;;;;;;;7.90;4.05;;;;;;;18.04;51.38;102200.75;6109856;23;20317;-76
2023/05/20 06:52:37;;;;;;;8.40;3.65;;;;;;;18.12;52.38;102200.63;6132662;23;20016;-78
2023/05/20 06:55:03;;;;;;;14.57;4.20;;;;;;;17.92;51.58;102203.69;6108007;23;20008;-76
2023/05/20 06:57:29;;;;;;;9.25;4.60;;;;;;;18.00;52.76;102197.31;6132447;23;20104;-77
2023/05/20 06:59:54;;;;;;;11.43;4.10;;;;;;;18.01;52.24;102192.88;6132950;23;20091;-77
2023/05/20 07:02:21;;;;;;;9.02;3.67;;;;;;;18.10;55.46;102191.78;6108356;23;20345;-80
2023/05/20 07:04:47;;;;;;;7.40;3.95;;;;;;;18.17;52.50;102193.41;6157456;23;20005;-79
2023/05/20 07:07:12;;;;;;;9.35;3.97;;;;;;;18.16;50.90;102197.00;6157527;23;20087;-80
2023/05/20 07:09:42;;;;;;;9.93;4.00;;;;;;;18.02;51.09;102188.47;6132563;23;20013;-77
2023/05/20 07:12:07;;;;;;;7.68;3.58;;;;;;;17.94;51.59;102188.59;6157736;23;20427;-77
2023/05/20 07:14:33;;;;;;;9.52;3.83;;;;;;;17.93;52.52;102190.41;6099410;23;20012;-78
2023/05/20 07:16:58;;;;;;;8.77;4.18;;;;;;;17.86;51.42;102194.03;6130891;23;20308;-75
2023/05/20 07:19:23;;;;;;;5.45;3.88;;;;;;;17.66;50.87;102190.00;6107841;23;20009;-80
2023/05/20 07:21:49;;;;;;;12.07;3.85;;;;;;;17.58;52.64;102189.28;6132064;23;20013;-76
2023/05/20 07:24:16;;;;;;;6.95;3.70;;;;;;;17.61;52.24;102191.00;6107650;23;20009;-77
2023/05/20 07:26:41;;;;;;;8.73;4.10;;;;;;;17.72;52.92;102185.50;6154279;23;20365;-78
2023/05/20 07:29:09;;;;;;;8.40;3.50;;;;;;;17.65;51.45;102188.25;6108430;23;20092;-78
2023/05/20 07:31:34;;;;;;;12.63;4.03;;;;;;;17.58;52.46;102183.13;6131400;23;20471;-78
2023/05/20 07:34:00;;;;;;;8.43;3.78;;;;;;;17.64;52.80;102183.88;6132437;23;20013;-82
2023/05/20 07:36:26;;;;;;;6.28;3.60;;;;;;;17.44;52.40;102180.72;6155507;23;20015;-81
2023/05/20 07:38:52;;;;;;;7.20;3.78;;;;;;;17.46;52.05;102177.16;6132755;23;20339;-78
2023/05/20 07:41:18;;;;;;;6.68;3.45;;;;;;;17.57;51.54;102173.41;6131423;23;20092;-78
2023/05/20 07:43:43;;;;;;;7.38;3.55;;;;;;;17.39;51.72;102172.88;6134406;23;20005;-80
2023/05/20 07:46:08;;;;;;;8.43;3.47;;;;;;;17.45;53.14;102172.75;6109428;23;20013;-79
2023/05/20 07:48:34;;;;;;;10.25;4.20;;;;;;;17.43;51.13;102165.75;6109579;23;20008;-79
2023/05/20 07:51:00;;;;;;;8.60;3.88;;;;;;;17.37;51.62;102163.19;6132069;23;20013;-79
2023/05/20 07:53:25;;;;;;;8.23;3.90;;;;;;;17.22;52.02;102164.38;6158887;23;20005;-79
2023/05/20 07:55:51;;;;;;;5.35;3.70;;;;;;;17.37;53.63;102163.19;6131498;23;20005;-79
2023/05/20 07:58:16;;;;;;;10.63;4.30;;;;;;;17.27;52.94;102167.81;6134964;23;20005;-81
2023/05/20 08:00:43;;;;;;;7.53;3.35;;;;;;;17.20;52.55;102164.41;6133104;23;20015;-79
2023/05/20 08:03:10;;;;;;;5.75;3.90;;;;;;;17.25;52.73;102156.38;6134335;23;20005;-78
2023/05/20 08:05:37;;;;;;;7.20;3.65;;;;;;;17.39;53.39;102159.63;6110588;23;20024;-80
2023/05/20 08:08:03;;;;;;;11.40;3.70;;;;;;;17.30;51.28;102152.72;6158746;23;20084;-77
2023/05/20 08:10:28;;;;;;;9.20;3.70;;;;;;;17.25;50.41;102149.28;6158085;23;20005;-79
2023/05/20 08:12:53;;;;;;;7.18;3.30;;;;;;;17.26;51.88;102153.69;6133730;23;20016;-79
2023/05/20 08:15:19;;;;;;;11.00;3.75;;;;;;;17.30;52.10;102159.81;6107541;23;20348;-79
2023/05/20 08:17:47;;;;;;;9.43;3.40;;;;;;;17.31;53.00;102169.50;6134044;23;20064;-79
2023/05/20 08:20:13;;;;;;;12.55;4.05;;;;;;;17.18;50.83;102155.59;6133650;23;20155;-78
2023/05/20 08:22:39;;;;;;;10.38;3.90;;;;;;;17.26;52.12;102144.88;6109163;23;20009;-79
2023/05/20 08:25:08;;;;;;;8.90;3.75;;;;;;;17.34;52.34;102148.25;6133440;23;20005;-78
2023/05/20 08:27:34;;;;;;;5.63;3.75;;;;;;;17.36;51.26;102142.94;6110274;23;20012;-78
2023/05/20 08:30:00;;;;;;;10.20;3.35;;;;;;;17.45;52.95;102164.78;6133611;23;20405;-79
2023/05/20 08:32:25;;;;;;;13.13;3.70;;;;;;;17.26;51.13;102151.03;6110052;23;20099;-80
2023/05/20 08:34:51;;;;;;;7.80;3.40;;;;;;;17.27;51.69;102143.97;6133726;23;20023;-79
2023/05/20 08:37:16;;;;;;;7.57;3.58;;;;;;;17.20;51.00;102143.22;6158016;23;20013;-79
2023/05/20 08:39:43;;;;;;;8.32;3.75;;;;;;;17.17;51.83;102140.63;6133214;23;20379;-78
2023/05/20 08:42:10;;;;;;;6.30;3.63;;;;;;;17.34;52.33;102131.47;6134571;23;20100;-80
2023/05/20 08:44:36;;;;;;;5.65;3.50;;;;;;;17.42;50.71;102127.75;6109213;23;20025;-81
2023/05/20 08:47:03;;;;;;;7.53;3.50;;;;;;;17.48;50.24;102132.97;6157972;23;20383;-80
2023/05/20 08:49:30;;;;;;;9.23;3.30;;;;;;;17.39;51.15;102124.31;6159190;23;20001;-79
2023/05/20 08:51:57;;;;;;;9.85;3.22;;;;;;;17.40;50.59;102126.06;6157715;23;20009;-80
2023/05/20 08:54:25;;;;;;;5.40;3.65;;;;;;;17.43;51.15;102128.66;6109855;23;20079;-79
2023/05/20 08:56:52;;;;;;;6.43;2.80;;;;;;;17.56;51.10;102127.50;6110104;23;20028;-79
2023/05/20 08:59:18;;;;;;;6.00;3.13;;;;;;;17.46;47.71;102134.75;6135015;23;20348;-81
2023/05/20 09:01:44;;;;;;;8.00;4.07;;;;;;;17.44;48.81;102119.78;6134414;23;20012;-79
2023/05/20 09:04:10;;;;;;;6.18;3.40;;;;;;;17.41;50.15;102123.38;6109637;23;20100;-79
2023/05/20 09:06:43;;;;;;;6.03;2.90;;;;;;;17.41;50.03;102120.75;6134157;23;20109;-81
2023/05/20 09:09:12;;;;;;;9.98;3.55;;;;;;;17.35;49.31;102123.50;6158741;23;20009;-82
2023/05/20 09:11:39;;;;;;;8.77;3.50;;;;;;;17.38;50.43;102118.13;6108252;23;20097;-80
2023/05/20 09:14:06;;;;;;;4.30;3.20;;;;;;;17.41;49.22;102128.69;6134970;23;20017;-72
2023/05/20 09:16:31;;;;;;;8.38;3.55;;;;;;;17.47;49.52;102127.69;6134321;23;20009;-76
2023/05/20 09:18:58;;;;;;;8.27;4.00;;;;;;;17.51;52.41;102115.25;6109943;23;20099;-78
2023/05/20 09:21:27;;;;;;;8.02;3.78;;;;;;;17.66;53.69;102122.88;6158309;23;20032;-77
2023/05/20 09:23:56;;;;;;;9.25;3.90;;;;;;;17.57;49.22;102123.94;6158345;23;20005;-76
2023/05/20 09:26:22;;;;;;;7.63;3.80;;;;;;;17.46;49.16;102102.94;6109438;23;20017;-75
2023/05/20 09:28:48;;;;;;;12.30;3.35;;;;;;;17.55;51.03;102111.63;6134534;23;20099;-76
2023/05/20 09:31:13;;;;;;;6.63;3.45;;;;;;;17.60;51.61;102099.16;6132690;23;20457;-75
2023/05/20 09:33:39;;;;;;;8.63;3.67;;;;;;;17.76;51.79;102108.53;6158832;23;20008;-75
2023/05/20 09:36:09;;;;;;;5.13;3.30;;;;;;;17.78;52.30;102116.44;6157998;23;20321;-76
2023/05/20 09:38:39;;;;;;;5.20;3.65;;;;;;;17.72;49.63;102106.84;6134064;23;20013;-76
2023/05/20 09:41:12;;;;;;;5.57;3.77;;;;;;;17.62;51.40;102114.09;6108265;23;20391;-74
2023/05/20 09:43:41;;;;;;;7.18;3.63;;;;;;;17.66;50.01;102107.84;6158406;23;20008;-76
2023/05/20 09:46:07;;;;;;;5.28;3.15;;;;;;;17.93;52.20;102094.03;6109345;23;20013;-82
2023/05/20 09:48:36;;;;;;;8.80;3.72;;;;;;;17.89;49.44;102108.25;6133598;23;20399;-77
2023/05/20 09:51:03;;;;;;;8.05;3.60;;;;;;;17.70;51.33;102098.06;6158421;23;20353;-76
2023/05/20 09:53:29;;;;;;;8.18;3.70;;;;;;;17.67;50.29;102098.13;6134876;23;20013;-76
2023/05/20 09:55:54;;;;;;;5.90;3.20;;;;;;;17.76;51.54;102107.66;6108595;23;20039;-78
2023/05/20 09:58:22;;;;;;;5.88;3.20;;;;;;;17.71;48.32;102098.91;6157758;23;20400;-78
2023/05/20 10:00:47;;;;;;;7.47;3.33;;;;;;;17.74;48.68;102101.50;6155903;23;20012;-73
2023/05/20 10:03:13;;;;;;;8.38;3.55;;;;;;;17.87;48.96;102102.09;6108444;23;20380;-73
2023/05/20 10:05:51;;;;;;;4.93;2.78;;;;;;;18.10;51.65;102097.19;6156158;23;20011;-77
2023/05/20 10:08:28;;;;;;;6.25;3.05;;;;;;;18.08;48.73;102092.81;6157826;23;20032;-73
2023/05/20 10:11:13;;;;;;;6.63;2.75;;;;;;;18.20;50.67;102089.88;6156346;23;20067;-74
2023/05/20 10:14:03;;;;;;;6.80;3.45;;;;;;;18.07;47.71;102089.28;6157442;23;20036;-77
2023/05/20 10:16:43;;;;;;;7.75;3.00;;;;;;;18.02;47.95;102077.06;6156211;23;20004;-73
2023/05/20 10:19:33;;;;;;;5.70;2.88;;;;;;;17.94;48.61;102083.41;6157142;23;20067;-77
2023/05/20 10:22:01;;;;;;;6.15;3.20;;;;;;;17.96;49.01;102072.78;6130914;23;20049;-73
2023/05/20 10:24:39;;;;;;;6.05;3.20;;;;;;;18.18;50.45;102078.44;6156520;23;20005;-75
2023/05/20 10:27:08;;;;;;;5.13;3.00;;;;;;;18.23;49.38;102070.34;6157308;23;20005;-81
2023/05/20 10:29:43;;;;;;;6.20;3.25;;;;;;;18.13;47.77;102073.25;6132373;23;20020;-79
2023/05/20 10:32:08;;;;;;;6.18;3.30;;;;;;;18.13;48.64;102059.97;6156270;23;20432;-82
2023/05/20 10:34:45;;;;;;;4.75;3.05;;;;;;;18.22;49.33;102058.88;6156860;23;20012;-80
2023/05/20 10:37:24;;;;;;;8.38;3.05;;;;;;;18.39;50.17;102073.50;6157031;23;20040;-82
2023/05/20 10:39:49;;;;;;;8.02;3.10;;;;;;;18.51;51.48;102055.50;6156406;23;20001;-80
2023/05/20 10:42:15;;;;;;;5.10;2.67;;;;;;;18.48;47.21;102058.22;6107946;23;20015;-80
2023/05/20 10:44:41;;;;;;;12.30;3.60;;;;;;;18.49;49.05;102056.47;6132824;23;20001;-78
2023/05/20 10:47:07;;;;;;;5.65;3.15;;;;;;;18.49;50.85;102051.16;6132941;23;20035;-77
2023/05/20 10:49:34;;;;;;;7.82;2.67;;;;;;;18.58;50.45;102056.22;6132673;23;20009;-79
2023/05/20 10:51:59;;;;;;;7.22;2.83;;;;;;;18.55;47.61;102053.66;6156480;23;20004;-78
2023/05/20 10:54:25;;;;;;;3.63;3.03;;;;;;;18.56;46.94;102054.50;6156583;23;20051;-79
2023/05/20 10:56:52;;;;;;;5.57;3.00;;;;;;;18.67;47.96;102050.66;6082965;23;1171573;-78
2023/05/20 10:59:20;;;;;;;5.53;2.80;;;;;;;18.50;48.46;102055.53;6158325;23;20431;-77
2023/05/20 11:01:46;;;;;;;4.55;2.60;;;;;;;18.44;49.54;102050.38;6158180;23;20008;-80
2023/05/20 11:04:14;;;;;;;5.07;3.00;;;;;;;18.54;48.36;102051.88;6133464;23;20339;-80
2023/05/20 11:06:50;;;;;;;5.00;3.10;;;;;;;18.72;49.05;102055.84;6158283;23;20088;-77
2023/05/20 11:09:15;;;;;;;5.47;2.75;;;;;;;18.95;49.67;102034.03;6157382;23;20008;-79
2023/05/20 11:11:41;;;;;;;9.25;2.92;;;;;;;18.87;47.08;102041.31;6108785;23;20019;-81
2023/05/20 11:14:07;;;;;;;5.25;2.50;;;;;;;18.66;46.41;102032.09;6158255;23;20012;-78
2023/05/20 11:16:32;;;;;;;8.48;2.90;;;;;;;18.58;47.29;102026.16;6108834;23;20033;-78
2023/05/20 11:18:58;;;;;;;6.95;3.10;;;;;;;18.55;47.86;102031.50;6133498;23;20005;-79